Nearby METAR Reports

Sorted by Distance from Carson Valley Weather Station - Minden, Nevada

 

KMEV - Minden, Nevada, USA
Distance from station: SSW 3mi, 5km
Updated: Wed, 18-Sep-2019 11:15am PDT
Overcast
Overcast
 Wind from WNW
Wind: WNW 8 mph , 13 km/h, Gust: 28 mph , 44 km/h
Temperature: 64°F , 18°C
Dew Point: 36°F , 2°C
Humidity: 34%
Barometer: 29.95 inHg , 1014.2 hPa
Clouds: Overcast
Visibility: 10 miles , 16 km
Cloud details: Overcast 5500 ft
2019/09/18 18:15 KMEV 181815Z AUTO 29007G24KT 260V340 10SM OVC055 18/02 A2995 RMK AO2
KCXP - Carson City, Nevada, USA
Distance from station: N 10mi, 16km
Updated: Wed, 18-Sep-2019 11:10am PDT
Overcast
Overcast
 Wind from SW
Wind: SW 8 mph , 13 km/h, Gust: 17 mph , 28 km/h
Temperature: 64°F , 18°C
Dew Point: 39°F , 4°C
Humidity: 40%
Barometer: 29.93 inHg , 1013.5 hPa
Clouds: Overcast
Visibility: 10 miles , 16 km
Cloud details: Mostly cloudy 5500 ft
Overcast 7000 ft
2019/09/18 18:10 KCXP 181810Z AUTO 22007G15KT 160V250 10SM BKN055 OVC070 18/04 A2993 RMK AO2
 
KTVL - South Lake Tahoe, California, USA
Distance from station: WSW 18mi, 29km
Updated: Wed, 18-Sep-2019 10:53am PDT
Light rain, Overcast
Light rain, Overcast
 Wind from S
Wind: S 24 mph , 39 km/h, Gust: 33 mph , 54 km/h
Temperature: 54°F , 12°C
Dew Point: 36°F , 2°C
Humidity: 51%
Barometer: 29.99 inHg , 1015.6 hPa
Summary: Light rain
Clouds: Overcast
Visibility: 10 miles , 16 km
Cloud details: Mostly cloudy 2900 ft
Mostly cloudy 3800 ft
Overcast 4600 ft
2019/09/18 17:53 KTVL 181753Z AUTO 19021G29KT 10SM -RA BKN029 BKN038 OVC046 12/02 A2999 RMK AO2 PK WND 18033/1722 RAE1656B33 SLP123 P0000 60000 T01220022 10128 20100 55005
KTRK - Truckee Tahoe, California, USA
Distance from station: NW 29mi, 46km
Updated: Wed, 18-Sep-2019 10:45am PDT
Mostly cloudy
Mostly cloudy
 Wind from N
Wind: N 0 mph , 0 km/h
Temperature: 54°F , 12°C
Dew Point: 37°F , 3°C
Humidity: 54%
Barometer: 30.01 inHg , 1016.3 hPa
Clouds: Mostly cloudy
Visibility: 10 miles , 16 km
Cloud details: Mostly cloudy 3500 ft
2019/09/18 17:45 KTRK 181745Z 2308G17KT 180V240 10SM BKN035 12/03 A3001
 
KRNO - Reno, Nevada, USA
Distance from station: N 32mi, 51km
Updated: Wed, 18-Sep-2019 10:55am PDT
Mostly cloudy
Mostly cloudy
 Wind from SW
Wind: SW 10 mph , 17 km/h
Temperature: 64°F , 18°C
Dew Point: 37°F , 3°C
Humidity: 37%
Barometer: 29.92 inHg , 1013.2 hPa
Clouds: Mostly cloudy
Visibility: 10 miles , 16 km
Cloud details: Mostly cloudy 5000 ft
Mostly cloudy 7000 ft
Mostly cloudy 22000 ft
2019/09/18 17:55 KRNO 181755Z 22009KT 180V260 10SM BKN050 BKN070 BKN220 18/03 A2992 RMK AO2 SLP092 SH DSNT W MTN TOPS OBSCD DSNT SW T01780033 10189 20089 56003
KRTS - Reno/Stead, Nevada, USA
Distance from station: NNW 44mi, 71km
Updated: Wed, 18-Sep-2019 11:15am PDT
Light rain, Mostly cloudy
Light rain, Mostly cloudy
 Wind from W
Wind: W 18 mph , 30 km/h, Gust: 25 mph , 41 km/h
Temperature: 54°F , 12°C
Dew Point: 43°F , 6°C
Humidity: 67%
Barometer: 29.98 inHg , 1015.2 hPa
Summary: Light rain
Clouds: Mostly cloudy
Visibility: 6 miles , 10 km
Cloud details: Mostly cloudy 4700 ft
2019/09/18 18:15 KRTS 181815Z AUTO 27016G22KT 6SM -RA BKN047 12/06 A2998 RMK AO2
 
KBAN - Bridgeport(Mcmwt, California, USA
Distance from station: SSE 49mi, 79km
Updated: Wed, 18-Sep-2019 10:52am PDT
Clear
Clear
 Wind from SW
Wind: SW 20 mph , 31 km/h, Gust: 31 mph , 50 km/h
Temperature: 63°F , 17°C
Dew Point: 32°F , 0°C
Humidity: 32%
Barometer: 30.00 inHg , 1015.9 hPa
Clouds: Clear
Visibility: 10 miles , 16 km
2019/09/18 17:52 KBAN 181752Z AUTO 23017G27KT 10SM CLR 17/00 A3000 RMK AO2 PK WND 18027/1748 SLP084 T01670000 10167 20061 56006 $
KBLU - Emigrant Gap, California, USA
Distance from station: WNW 55mi, 89km
Updated: Wed, 18-Sep-2019 11:19am PDT
Light rain, Fog, Overcast
Light rain, Fog, Overcast
 Wind from SSE
Wind: SSE 8 mph , 13 km/h
Temperature: 45°F , 7°C
Wind Chill: 41°F , 5°C
Dew Point: 43°F , 6°C
Humidity: 93%
Barometer: 30.04 inHg , 1017.3 hPa
Summary: Light rain, Fog
Clouds: Overcast
Visibility: 1/4 mile , 0.4 km
Cloud details: Overcast 200 ft
2019/09/18 18:19 KBLU 181819Z AUTO 15007KT 1/4SM -RA FG VV002 07/06 A3004 RMK AO2 P0004 T00670056
 
KPVF - Placerville, California, USA
Distance from station: WSW 60mi, 96km
Updated: Wed, 18-Sep-2019 11:15am PDT
Overcast
Overcast
 Wind from SSW
Wind: SSW 10 mph , 17 km/h, Gust: 16 mph , 26 km/h
Temperature: 55°F , 13°C
Dew Point: 55°F , 13°C
Humidity: 100%
Barometer: 30.02 inHg , 1016.6 hPa
Clouds: Overcast
Visibility: less than 1/4 mile , 0.4 km
Cloud details: Overcast 200 ft
2019/09/18 18:15 KPVF 181815Z AUTO 20009G14KT M1/4SM OVC002 13/13 A3002 RMK AO1 P0005
KNFL - Fallon Nas, Nevada, USA
Distance from station: ENE 61mi, 97km
Updated: Wed, 18-Sep-2019 10:56am PDT
Mostly cloudy
Mostly cloudy
 Wind from SSW
Wind: SSW 13 mph , 20 km/h
Temperature: 73°F , 23°C
Dew Point: 34°F , 1°C
Humidity: 23%
Barometer: 29.89 inHg , 1012.2 hPa
Clouds: Mostly cloudy
Visibility: 10 miles , 16 km
Cloud details: Mostly cloudy 8000 ft
Mostly cloudy 12000 ft
Mostly cloudy 18000 ft
Mostly cloudy 24000 ft
2019/09/18 17:56 KNFL 181756Z 20011KT 10SM BKN080 BKN120 BKN180 BKN240 23/01 A2989 RMK AO2 SLP095 T02330011 10233 20067 58012
 
KHTH - Hawthorne, Nevada, USA
Distance from station: ESE 68mi, 109km
Updated: Wed, 18-Sep-2019 11:15am PDT
Clear
Clear
 Wind from N
Wind: N 8 mph , 13 km/h
Temperature: 72°F , 22°C
Dew Point: 23°F , -5°C
Humidity: 16%
Barometer: 29.90 inHg , 1012.5 hPa
Clouds: Clear
Visibility: 10 miles , 16 km
2019/09/18 18:15 KHTH 181815Z AUTO 35007KT 320V040 10SM CLR 22/M05 A2990 RMK A01
KGOO - Grass Valley, California, USA
Distance from station: W 70mi, 112km
Updated: Mon, 16-Sep-2019 2:35pm PDT
NOT Current
Overcast
Overcast
 Wind from calm
Wind: Calm
Temperature: 54°F , 12°C
Dew Point: 50°F , 10°C
Humidity: 88%
Barometer: 30.00 inHg , 1015.9 hPa
Clouds: Overcast
Visibility: 10 miles , 16 km
Cloud details: Partly cloudy 1600 ft
Mostly cloudy 2200 ft
Overcast 5500 ft
2019/09/16 21:35 KGOO 162135Z AUTO 00000KT 10SM SCT016 BKN022 OVC055 12/10 A3000 RMK A01
 
KAUN - Auburn Muni, California, USA
Distance from station: W 73mi, 118km
Updated: Wed, 18-Sep-2019 11:15am PDT
Overcast
Overcast
 Wind from varies
Wind: varies 6 mph , 9 km/h, Gust: 13 mph , 20 km/h
Temperature: 61°F , 16°C
Dew Point: 59°F , 15°C
Humidity: 94%
Barometer: 29.98 inHg , 1015.2 hPa
Clouds: Overcast
Visibility: 10 miles , 16 km
Cloud details: Overcast 400 ft
2019/09/18 18:15 KAUN 181815Z AUTO VRB05G11KT 10SM OVC004 16/15 A2998 RMK A01
KO22 - Columbia, California, USA
Distance from station: SSW 79mi, 127km
Updated: Wed, 18-Sep-2019 11:15am PDT
Mostly cloudy
Mostly cloudy
 Wind from varies
Wind: varies 5 mph , 7 km/h
Temperature: 68°F , 20°C
Dew Point: 46°F , 8°C
Humidity: 46%
Barometer: 30.01 inHg , 1016.3 hPa
Clouds: Mostly cloudy
Visibility: 10 miles , 16 km
Cloud details: Mostly cloudy 9000 ft
2019/09/18 18:15 KO22 181815Z AUTO VRB04KT 10SM BKN090 20/08 A3001 RMK A01
 
KLHM - Lincoln, California, USA
Distance from station: W 88mi, 141km
Updated: Wed, 18-Sep-2019 11:15am PDT
Mostly cloudy
Mostly cloudy
 Wind from SSE
Wind: SSE 16 mph , 26 km/h
Temperature: 66°F , 19°C
Dew Point: 61°F , 16°C
Humidity: 83%
Barometer: 29.93 inHg , 1013.5 hPa
Clouds: Mostly cloudy
Visibility: 10 miles , 16 km
Cloud details: Mostly cloudy 1300 ft
2019/09/18 18:15 KLHM 181815Z AUTO 16014KT 10SM BKN013 19/16 A2993 RMK AO1
KBAB - Beale Afb/Marysv, California, USA
Distance from station: W 91mi, 147km
Updated: Wed, 18-Sep-2019 10:58am PDT
Overcast
Overcast
 Wind from S
Wind: S 14 mph , 22 km/h, Gust: 22 mph , 35 km/h
Temperature: 66°F , 19°C
Dew Point: 61°F , 16°C
Humidity: 83%
Barometer: 29.92 inHg , 1013.2 hPa
Clouds: Overcast
Visibility: 10 miles , 16 km
Cloud details: Overcast 1100 ft
2019/09/18 17:58 KBAB 181758Z 17012G19KT 10SM OVC011 19/16 A2992 RMK AO2A SLP134 60003 T01940160 10194 20158 50005 $
 
KMHR - Mather Field, California, USA
Distance from station: WSW 91mi, 147km
Updated: Wed, 18-Sep-2019 10:48am PDT
Mostly cloudy
Mostly cloudy
 Wind from SSE
Wind: SSE 13 mph , 20 km/h
Temperature: 64°F , 18°C
Dew Point: 61°F , 16°C
Humidity: 88%
Barometer: 29.94 inHg , 1013.9 hPa
Clouds: Mostly cloudy
Visibility: 8 miles , 13 km
Cloud details: Mostly cloudy 1800 ft
Mostly cloudy 5500 ft
2019/09/18 17:48 KMHR 181748Z 15011KT 8SM BKN018 BKN055 18/16 A2994
KLOL - Lovelock, Nevada, USA
Distance from station: NE 94mi, 151km
Updated: Wed, 18-Sep-2019 10:53am PDT
Mostly cloudy
Mostly cloudy
 Wind from varies
Wind: varies 5 mph , 7 km/h
Temperature: 66°F , 19°C
Dew Point: 32°F , 0°C
Humidity: 28%
Barometer: 29.90 inHg , 1012.5 hPa
Clouds: Mostly cloudy
Visibility: 10 miles , 16 km
Cloud details: Mostly cloudy 9500 ft
2019/09/18 17:53 KLOL 181753Z AUTO VRB04KT 10SM BKN095 19/00 A2990 RMK AO2 SLP108 T01890000 10189 20006 58007
 
KMCC - Mcclellan Afb, California, USA
Distance from station: WSW 94mi, 151km
Updated: Wed, 18-Sep-2019 11:20am PDT
Mostly cloudy
Mostly cloudy
 Wind from SSE
Wind: SSE 12 mph , 19 km/h
Temperature: 68°F , 20°C
Dew Point: 64°F , 18°C
Humidity: 88%
Barometer: 29.96 inHg , 1014.6 hPa
Clouds: Mostly cloudy
Visibility: 9 miles , 14 km
Cloud details: Few Clouds 1300 ft
Partly cloudy 5500 ft
Mostly cloudy 8000 ft
2019/09/18 18:20 KMCC 181820Z AUTO 16010KT 9SM FEW013 SCT055 BKN080 20/18 A2996 RMK AO2
KMYV - Marysville, California, USA
Distance from station: W 99mi, 159km
Updated: Wed, 18-Sep-2019 10:53am PDT
Few Clouds
Few Clouds
 Wind from SSE
Wind: SSE 16 mph , 26 km/h
Temperature: 70°F , 21°C
Dew Point: 61°F , 16°C
Humidity: 73%
Barometer: 29.93 inHg , 1013.5 hPa
Clouds: Few Clouds
Visibility: 10 miles , 16 km
Cloud details: Few Clouds 1300 ft
2019/09/18 17:53 KMYV 181753Z AUTO 15014KT 10SM FEW013 21/16 A2993 RMK AO2 SLP137 60000 T02110161 10211 20156 51002
 
KSVE - Susanville Muni, California, USA
Distance from station: NNW 102mi, 164km
Updated: Wed, 18-Sep-2019 11:15am PDT
Mostly cloudy
Mostly cloudy
 Wind from W
Wind: W 5 mph , 7 km/h
Temperature: 54°F , 12°C
Dew Point: 45°F , 7°C
Humidity: 72%
Barometer: 29.96 inHg , 1014.6 hPa
Clouds: Mostly cloudy
Visibility: 10 miles , 16 km
Cloud details: Partly cloudy 3300 ft
Mostly cloudy 4200 ft
Mostly cloudy 4900 ft
2019/09/18 18:15 KSVE 181815Z AUTO 27004KT 10SM SCT033 BKN042 BKN049 12/07 A2996 RMK AO2
KSAC - Sacramento, California, USA
Distance from station: WSW 103mi, 165km
Updated: Wed, 18-Sep-2019 10:53am PDT
Overcast
Overcast
 Wind from SSE
Wind: SSE 8 mph , 13 km/h
Temperature: 66°F , 19°C
Dew Point: 63°F , 17°C
Humidity: 88%
Barometer: 29.95 inHg , 1014.2 hPa
Clouds: Overcast
Visibility: 10 miles , 16 km
Cloud details: Overcast 7000 ft
2019/09/18 17:53 KSAC 181753Z 16007KT 10SM OVC070 19/17 A2995 RMK AO2 SLP140 60004 T01940167 10194 20150 50004
 
KSMF - Sacramento/Metro, California, USA
Distance from station: WSW 104mi, 167km
Updated: Wed, 18-Sep-2019 10:53am PDT
Mostly cloudy
Mostly cloudy
 Wind from S
Wind: S 16 mph , 26 km/h
Temperature: 70°F , 21°C
Dew Point: 61°F , 16°C
Humidity: 73%
Barometer: 29.93 inHg , 1013.5 hPa
Clouds: Mostly cloudy
Visibility: 10 miles , 16 km
Cloud details: Partly cloudy 9000 ft
Mostly cloudy 18000 ft
2019/09/18 17:53 KSMF 181753Z 18014KT 10SM SCT090 BKN180 21/16 A2993 RMK AO2 SLP133 60001 T02110161 10211 20156 50004
KOVE - Oroville, California, USA
Distance from station: WNW 106mi, 171km
Updated: Wed, 18-Sep-2019 10:53am PDT
Overcast
Overcast
 Wind from SSE
Wind: SSE 16 mph , 26 km/h
Temperature: 68°F , 20°C
Dew Point: 57°F , 14°C
Humidity: 69%
Barometer: 29.94 inHg , 1013.9 hPa
Clouds: Overcast
Visibility: 10 miles , 16 km
Cloud details: Few Clouds 1500 ft
Overcast 4400 ft
2019/09/18 17:53 KOVE 181753Z AUTO 15014KT 10SM FEW015 OVC044 20/14 A2994 RMK AO2 SLP139 60000 T02000144 10206 20156 51004
 
KMMH - Mammoth/June Lak, California, USA
Distance from station: SSE 110mi, 177km
Updated: Wed, 18-Sep-2019 11:15am PDT
Partly cloudy
Partly cloudy
 Wind from WSW
Wind: WSW 9 mph , 15 km/h, Gust: 31 mph , 50 km/h
Temperature: 64°F , 18°C
Dew Point: 25°F , -4°C
Humidity: 22%
Barometer: 30.08 inHg , 1018.6 hPa
Clouds: Partly cloudy
Visibility: 10 miles , 16 km
Cloud details: Partly cloudy 9000 ft
2019/09/18 18:15 KMMH 181815Z AUTO 25008G27KT 10SM SCT090 18/M04 A3008 RMK AO2 T01791038
KSCK - Stockton, California, USA
Distance from station: SW 114mi, 183km
Updated: Wed, 18-Sep-2019 10:55am PDT
Overcast
Overcast
 Wind from SW
Wind: SW 7 mph , 11 km/h
Temperature: 73°F , 23°C
Dew Point: 55°F , 13°C
Humidity: 53%
Barometer: 29.96 inHg , 1014.6 hPa
Clouds: Overcast
Visibility: 10 miles , 16 km
Cloud details: Partly cloudy 3900 ft
Overcast 6500 ft
2019/09/18 17:55 KSCK 181755Z 23006KT 10SM SCT039 OVC065 23/13 A2996 RMK AO2 SLP144 T02280128 10228 20161 50002
 
KEDU - Davis, California, USA
Distance from station: WSW 116mi, 187km
Updated: Wed, 18-Sep-2019 11:15am PDT
Partly cloudy
Partly cloudy
 Wind from SSW
Wind: SSW 12 mph , 19 km/h
Temperature: 72°F , 22°C
Dew Point: 57°F , 14°C
Humidity: 61%
Barometer: 29.94 inHg , 1013.9 hPa
Clouds: Partly cloudy
Visibility: 10 miles , 16 km
Cloud details: Few Clouds 5000 ft
Partly cloudy 8000 ft
2019/09/18 18:15 KEDU 181815Z AUTO 20010KT 10SM FEW050 SCT080 22/14 A2994 RMK AO1
KMOD - Modesto, California, USA
Distance from station: SW 119mi, 191km
Updated: Wed, 18-Sep-2019 10:53am PDT
Mostly cloudy
Mostly cloudy
 Wind from calm
Wind: Calm
Temperature: 72°F , 22°C
Dew Point: 52°F , 11°C
Humidity: 50%
Barometer: 29.96 inHg , 1014.6 hPa
Clouds: Mostly cloudy
Visibility: 10 miles , 16 km
Cloud details: Mostly cloudy 4700 ft
2019/09/18 17:53 KMOD 181753Z 00000KT 10SM BKN047 22/11 A2996 RMK AO2 SLP144 T02170111 10217 20139 50000
 
KMER - Merced/Castle Af, California, USA
Distance from station: SSW 123mi, 198km
Updated: Wed, 18-Sep-2019 10:45am PDT
Clear
Clear
 Wind from NNW
Wind: NNW 3 mph , 6 km/h
Temperature: 75°F , 24°C
Dew Point: 55°F , 13°C
Humidity: 50%
Barometer: 29.97 inHg , 1014.9 hPa
Clouds: Clear
Visibility: 10 miles , 16 km
2019/09/18 17:45 KMER 181745Z 33003KT 10SM SKC 24/13 A2997
KCIC - Chico Municipal, California, USA
Distance from station: WNW 124mi, 199km
Updated: Wed, 18-Sep-2019 10:50am PDT
Overcast
Overcast
 Wind from ESE
Wind: ESE 8 mph , 13 km/h
Temperature: 63°F , 17°C
Dew Point: 57°F , 14°C
Humidity: 83%
Barometer: 29.95 inHg , 1014.2 hPa
Clouds: Overcast
Visibility: 25 miles , 40 km
Cloud details: Few Clouds 600 ft
Partly cloudy 1200 ft
Overcast 2100 ft
2019/09/18 17:50 KCIC 181750Z 11007KT 25SM FEW006 SCT012 OVC021 17/14 A2995 RMK VIS E 5SM.
 
KMCE - Merced, California, USA
Distance from station: SSW 128mi, 207km
Updated: Wed, 18-Sep-2019 10:53am PDT
Clear
Clear
 Wind from NNW
Wind: NNW 5 mph , 7 km/h
Temperature: 73°F , 23°C
Dew Point: 54°F , 12°C
Humidity: 50%
Barometer: 29.96 inHg , 1014.6 hPa
Clouds: Clear
Visibility: 10 miles , 16 km
2019/09/18 17:53 KMCE 181753Z AUTO 34004KT 10SM CLR 23/12 A2996 RMK AO2 SLP143 T02280117 10228 20117 58003
KVCB - Vacaville, California, USA
Distance from station: WSW 128mi, 207km
Updated: Wed, 18-Sep-2019 10:53am PDT
Mostly cloudy
Mostly cloudy
 Wind from SSW
Wind: SSW 13 mph , 20 km/h, Gust: 20 mph , 31 km/h
Temperature: 72°F , 22°C
Dew Point: 59°F , 15°C
Humidity: 65%
Barometer: 29.95 inHg , 1014.2 hPa
Clouds: Mostly cloudy
Visibility: 10 miles , 16 km
Cloud details: Mostly cloudy 9000 ft
2019/09/18 17:53 KVCB 181753Z AUTO 21011G17KT 10SM BKN090 22/15 A2995 RMK AO2 SLP140 T02220150 10228 20172 53004
 
KSUU - Travis Afb/Fairf, California, USA
Distance from station: WSW 130mi, 209km
Updated: Wed, 18-Sep-2019 10:58am PDT
Mostly cloudy
Mostly cloudy
 Wind from WSW
Wind: WSW 13 mph , 20 km/h
Temperature: 73°F , 23°C
Dew Point: 57°F , 14°C
Humidity: 57%
Barometer: 29.95 inHg , 1014.2 hPa
Clouds: Mostly cloudy
Visibility: 10 miles , 16 km
Cloud details: Partly cloudy 8000 ft
Mostly cloudy 9500 ft
2019/09/18 17:58 KSUU 181758Z AUTO 24011KT 10SM SCT080 BKN095 23/14 A2995 RMK AO2 SLP149 T02270137 10227 20158 53005 $
KBIH - Bishop, California, USA
Distance from station: SE 137mi, 221km
Updated: Wed, 18-Sep-2019 10:56am PDT
Clear
Clear
 Wind from calm
Wind: Calm
Temperature: 72°F , 22°C
Dew Point: 30°F , -1°C
Humidity: 22%
Barometer: 29.95 inHg , 1014.2 hPa
Clouds: Clear
Visibility: 10 miles , 16 km
2019/09/18 17:56 KBIH 181756Z AUTO 00000KT 10SM CLR 22/M01 A2995 RMK AO2 SLP101 T02171006 10222 20039 58010
 
KMAE - Madera, California, USA
Distance from station: S 144mi, 231km
Updated: Wed, 18-Sep-2019 10:53am PDT
Clear
Clear
 Wind from varies
Wind: varies 5 mph , 7 km/h
Temperature: 73°F , 23°C
Dew Point: 50°F , 10°C
Humidity: 44%
Barometer: 29.97 inHg , 1014.9 hPa
Clouds: Clear
Visibility: 10 miles , 16 km
2019/09/18 17:53 KMAE 181753Z AUTO VRB04KT 10SM CLR 23/10 A2997 RMK AO2 SLP147 T02280100 10233 20106 58001
KCCR - Concord, California, USA
Distance from station: WSW 145mi, 233km
Updated: Wed, 18-Sep-2019 10:53am PDT
Overcast
Overcast
 Wind from SSW
Wind: SSW 12 mph , 19 km/h
Temperature: 72°F , 22°C
Dew Point: 59°F , 15°C
Humidity: 65%
Barometer: 29.95 inHg , 1014.2 hPa
Clouds: Overcast
Visibility: 10 miles , 16 km
Cloud details: Mostly cloudy 7500 ft
Overcast 9000 ft
2019/09/18 17:53 KCCR 181753Z 20010KT 10SM BKN075 OVC090 22/15 A2995 RMK AO2 RAB23E33 SLP130 P0000 60000 T02170150 10217 20178 50003
 
KLVK - Livermore, California, USA
Distance from station: SW 146mi, 236km
Updated: Wed, 18-Sep-2019 10:53am PDT
Overcast
Overcast
 Wind from SSW
Wind: SSW 8 mph , 13 km/h
Temperature: 64°F , 18°C
Dew Point: 61°F , 16°C
Humidity: 88%
Barometer: 29.98 inHg , 1015.2 hPa
Clouds: Overcast
Visibility: 10 miles , 16 km
Cloud details: Mostly cloudy 1900 ft
Mostly cloudy 2800 ft
Overcast 3300 ft
2019/09/18 17:53 KLVK 181753Z 21007KT 10SM BKN019 BKN028 OVC033 18/16 A2998 RMK AO2 RAB1658E44 SLP148 P0000 60000 T01830156 10200 20167 51008
KAPC - Napa, California, USA
Distance from station: WSW 150mi, 241km
Updated: Wed, 18-Sep-2019 10:54am PDT
Mostly cloudy
Mostly cloudy
 Wind from SW
Wind: SW 12 mph , 19 km/h
Temperature: 70°F , 21°C
Dew Point: 61°F , 16°C
Humidity: 73%
Barometer: 29.95 inHg , 1014.2 hPa
Clouds: Mostly cloudy
Visibility: 10 miles , 16 km
Cloud details: Mostly cloudy 1200 ft
2019/09/18 17:54 KAPC 181754Z 22010KT 10SM BKN012 21/16 A2995 RMK AO2 SLP134 60000 T02110156 10222 20161 51007
 
KRBL - Red Bluff, California, USA
Distance from station: WNW 155mi, 249km
Updated: Wed, 18-Sep-2019 11:07am PDT
Partly cloudy
Partly cloudy
 Wind from S
Wind: S 8 mph , 13 km/h
Temperature: 66°F , 19°C
Dew Point: 55°F , 13°C
Humidity: 68%
Barometer: 29.93 inHg , 1013.5 hPa
Clouds: Partly cloudy
Visibility: 10 miles , 16 km
Cloud details: Few Clouds 2400 ft
Partly cloudy 2900 ft
2019/09/18 18:07 KRBL 181807Z AUTO 18007KT 10SM FEW024 SCT029 19/13 A2993 RMK AO2 T01940128
KFAT - Fresno, California, USA
Distance from station: S 156mi, 251km
Updated: Wed, 18-Sep-2019 10:53am PDT
Clear
Clear
 Wind from N
Wind: N 3 mph , 6 km/h
Temperature: 73°F , 23°C
Dew Point: 46°F , 8°C
Humidity: 38%
Barometer: 29.97 inHg , 1014.9 hPa
Clouds: Clear
Visibility: 10 miles , 16 km
2019/09/18 17:53 KFAT 181753Z 36003KT 10SM CLR 23/08 A2997 RMK AO2 SLP145 MTNS OBSC HZ DSNT E-S T02280078 10233 20144 58001
 
KTPH - Tonopah, Nevada, USA
Distance from station: ESE 158mi, 254km
Updated: Wed, 18-Sep-2019 10:56am PDT
Clear
Clear
 Wind from SE
Wind: SE 9 mph , 15 km/h
Temperature: 66°F , 19°C
Dew Point: 23°F , -5°C
Humidity: 19%
Barometer: 30.02 inHg , 1016.6 hPa
Clouds: Clear
Visibility: 10 miles , 16 km
2019/09/18 17:56 KTPH 181756Z AUTO 14008KT 10SM CLR 19/M05 A3002 RMK AO2 SLP121 T01891050 10194 20039 58005
KFCH - Fresno Chandler, California, USA
Distance from station: S 161mi, 258km
Updated: Wed, 18-Sep-2019 11:15am PDT
Clear
Clear
 Wind from varies
Wind: varies 6 mph , 9 km/h
Temperature: 75°F , 24°C
Dew Point: 45°F , 7°C
Humidity: 34%
Barometer: 29.97 inHg , 1014.9 hPa
Clouds: Clear
Visibility: 10 miles , 16 km
2019/09/18 18:15 KFCH 181815Z AUTO VRB05KT 10SM CLR 24/07 A2997 RMK A01
 
KHWD - Hayward, California, USA
Distance from station: SW 161mi, 259km
Updated: Wed, 18-Sep-2019 11:21am PDT
Light rain, Overcast
Light rain, Overcast
 Wind from S
Wind: S 8 mph , 13 km/h
Temperature: 66°F , 19°C
Dew Point: 61°F , 16°C
Humidity: 83%
Barometer: 29.97 inHg , 1014.9 hPa
Summary: Light rain
Clouds: Overcast
Visibility: 6 miles , 10 km
Cloud details: Mostly cloudy 1500 ft
Overcast 6000 ft
2019/09/18 18:21 KHWD 181821Z 17007KT 6SM -RA BKN015 OVC060 19/16 A2997 RMK AO2 RAB1755 T01940161 PNO
KOAK - Oakland, California, USA
Distance from station: SW 164mi, 264km
Updated: Wed, 18-Sep-2019 10:58am PDT
Overcast
Overcast
 Wind from SW
Wind: SW 7 mph , 11 km/h
Temperature: 66°F , 19°C
Dew Point: 63°F , 17°C
Humidity: 88%
Barometer: 29.98 inHg , 1015.2 hPa
Clouds: Overcast
Visibility: 10 miles , 16 km
Cloud details: Partly cloudy 1200 ft
Overcast 2600 ft
2019/09/18 17:58 KOAK 181758Z 23006KT 10SM SCT012 OVC026 19/17 A2998 RMK AO2 T01940172
 
KWMC - Winnemucca, Nevada, USA
Distance from station: NE 164mi, 264km
Updated: Wed, 18-Sep-2019 10:56am PDT
Overcast
Overcast
 Wind from calm
Wind: Calm
Temperature: 63°F , 17°C
Dew Point: 27°F , -3°C
Humidity: 25%
Barometer: 29.90 inHg , 1012.5 hPa
Clouds: Overcast
Visibility: 10 miles , 16 km
Cloud details: Overcast 7000 ft
2019/09/18 17:56 KWMC 181756Z AUTO 00000KT 10SM OVC070 17/M03 A2990 RMK AO2 SLP098 T01721028 10178 20011 58006
KDVO - Novato/Gnoss Fld, California, USA
Distance from station: WSW 165mi, 265km
Updated: Wed, 18-Sep-2019 11:15am PDT
Overcast
Overcast
 Wind from NNW
Wind: NNW 7 mph , 11 km/h
Temperature: 70°F , 21°C
Dew Point: 61°F , 16°C
Humidity: 73%
Barometer: 29.95 inHg , 1014.2 hPa
Clouds: Overcast
Visibility: 10 miles , 16 km
Cloud details: Few Clouds 2500 ft
Mostly cloudy 3300 ft
Overcast 4700 ft
2019/09/18 18:15 KDVO 181815Z AUTO 34006KT 10SM FEW025 BKN033 OVC047 21/16 A2995 RMK AO2
 
KO69 - Petaluma, California, USA
Distance from station: WSW 165mi, 265km
Updated: Wed, 18-Sep-2019 11:15am PDT
Mostly cloudy
Mostly cloudy
 Wind from NW
Wind: NW 8 mph , 13 km/h
Temperature: 70°F , 21°C
Dew Point: 64°F , 18°C
Humidity: 83%
Barometer: 29.97 inHg , 1014.9 hPa
Clouds: Mostly cloudy
Visibility: 8 miles , 13 km
Cloud details: Mostly cloudy 1700 ft
Mostly cloudy 2200 ft
Mostly cloudy 3900 ft
2019/09/18 18:15 KO69 181815Z AUTO 32007KT 280V340 8SM BKN017 BKN022 BKN039 21/18 A2997 RMK A01
KRHV - San Jose/Reid, California, USA
Distance from station: SW 165mi, 265km
Updated: Wed, 18-Sep-2019 10:47am PDT
Overcast
Overcast
 Wind from WNW
Wind: WNW 3 mph , 6 km/h
Temperature: 70°F , 21°C
Dew Point: 57°F , 14°C
Humidity: 64%
Barometer: 29.98 inHg , 1015.2 hPa
Clouds: Overcast
Visibility: 10 miles , 16 km
Cloud details: Overcast 2700 ft
2019/09/18 17:47 KRHV 181747Z 29003KT 10SM OVC027 21/14 A2998
 
KSJC - San Jose, California, USA
Distance from station: SW 166mi, 267km
Updated: Wed, 18-Sep-2019 10:53am PDT
Mostly cloudy
Mostly cloudy
 Wind from calm
Wind: Calm
Temperature: 70°F , 21°C
Dew Point: 57°F , 14°C
Humidity: 64%
Barometer: 29.98 inHg , 1015.2 hPa
Clouds: Mostly cloudy
Visibility: 10 miles , 16 km
Cloud details: Few Clouds 100 ft
Partly cloudy 2000 ft
Mostly cloudy 2600 ft
2019/09/18 17:53 KSJC 181753Z 00000KT 10SM FEW001 SCT020 BKN026 21/14 A2998 RMK AO2 SLP151 T02060144 10211 20150 51004 $
KE16 - San Martin, California, USA
Distance from station: SW 169mi, 273km
Updated: Mon, 05-Aug-2019 10:10am PDT
NOT Current
Clear
Clear
 Wind from ESE
Wind: ESE 12 mph , 19 km/h
Temperature: 66°F , 19°C
Dew Point: 57°F , 14°C
Humidity: 73%
Barometer: 30.03 inHg , 1016.9 hPa
Clouds: Clear
Visibility: 10 miles , 16 km
2019/08/05 17:10 KE16 051710Z AUTO 12010KT 10SM CLR 19/14 A3003 RMK AO2
 
KPAO - Palo Alto, California, USA
Distance from station: SW 169mi, 273km
Updated: Wed, 18-Sep-2019 11:17am PDT
Mostly cloudy
Mostly cloudy
 Wind from S
Wind: S 12 mph , 19 km/h
Temperature: 68°F , 20°C
Dew Point: 61°F , 16°C
Humidity: 78%
Barometer: 29.97 inHg , 1014.9 hPa
Clouds: Mostly cloudy
Visibility: 10 miles , 16 km
Cloud details: Few Clouds 1800 ft
Mostly cloudy 2300 ft
2019/09/18 18:17 KPAO 181817Z 17010KT 10SM FEW018 BKN023 20/16 A2997
KNUQ - Moffett Nas/Mtn, California, USA
Distance from station: SW 170mi, 273km
Updated: Wed, 18-Sep-2019 10:56am PDT

 
Barometer: 29.99 inHg , 1015.6 hPa
2019/09/18 17:56 KNUQ 181756Z A2999 RMK AO2 SLP160 53007 PWINO $
 
KRDD - Redding, California, USA
Distance from station: NW 171mi, 275km
Updated: Wed, 18-Sep-2019 11:00am PDT
Mostly cloudy
Mostly cloudy
 Wind from S
Wind: S 8 mph , 13 km/h
Temperature: 66°F , 19°C
Dew Point: 54°F , 12°C
Humidity: 64%
Barometer: 29.91 inHg , 1012.9 hPa
Clouds: Mostly cloudy
Visibility: 10 miles , 16 km
Cloud details: Few Clouds 2000 ft
Mostly cloudy 3000 ft
2019/09/18 18:00 KRDD 181800Z 19007KT 10SM FEW020 BKN030 19/12 A2991 RMK AO2 T01890122
KSTS - Santa Rosa, California, USA
Distance from station: WSW 171mi, 275km
Updated: Wed, 18-Sep-2019 10:53am PDT
Overcast
Overcast
 Wind from calm
Wind: Calm
Temperature: 66°F , 19°C
Dew Point: 61°F , 16°C
Humidity: 83%
Barometer: 29.96 inHg , 1014.6 hPa
Clouds: Overcast
Visibility: 10 miles , 16 km
Cloud details: Partly cloudy 1200 ft
Mostly cloudy 1700 ft
Overcast 6000 ft
2019/09/18 17:53 KSTS 181753Z 00000KT 10SM SCT012 BKN017 OVC060 19/16 A2996 RMK AO2 SLP141 60001 T01890156 10189 20156 51008
 
KSQL - San Carlos Airpo, California, USA
Distance from station: SW 173mi, 278km
Updated: Wed, 18-Sep-2019 10:47am PDT
Mostly cloudy
Mostly cloudy
 Wind from varies
Wind: varies 3 mph , 6 km/h
Temperature: 66°F , 19°C
Dew Point: 61°F , 16°C
Humidity: 83%
Barometer: 29.98 inHg , 1015.2 hPa
Clouds: Mostly cloudy
Visibility: 8 miles , 13 km
Cloud details: Partly cloudy 2000 ft
Mostly cloudy 3800 ft
2019/09/18 17:47 KSQL 181747Z VRB03KT 8SM SCT020 BKN038 19/16 A2998
KCVH - Hollister Muni, California, USA
Distance from station: SSW 174mi, 280km
Updated: Wed, 18-Sep-2019 11:20am PDT
Clear
Clear
 Wind from calm
Wind: Calm
Temperature: 70°F , 21°C
Dew Point: 55°F , 13°C
Humidity: 60%
Barometer: 29.99 inHg , 1015.6 hPa
Clouds: Clear
Visibility: 10 miles , 16 km
2019/09/18 18:20 KCVH 181820Z AUTO 00000KT 10SM CLR 21/13 A2999 RMK A01
 
KSFO - San Francisco, California, USA
Distance from station: SW 174mi, 280km
Updated: Wed, 18-Sep-2019 10:56am PDT
Overcast
Overcast
 Wind from calm
Wind: Calm
Temperature: 66°F , 19°C
Dew Point: 57°F , 14°C
Humidity: 73%
Barometer: 29.96 inHg , 1014.6 hPa
Clouds: Overcast
Visibility: 9 miles , 14 km
Cloud details: Few Clouds 2000 ft
Partly cloudy 2700 ft
Overcast 6500 ft
2019/09/18 17:56 KSFO 181756Z 00000KT 9SM FEW020 SCT027 OVC065 19/14 A2996 RMK AO2 RAB20E30 SLP146 P0000 60000 T01940144 10206 20178 51005
KAAT - Alturas, California, USA
Distance from station: NNW 175mi, 281km
Updated: Wed, 18-Sep-2019 10:55am PDT
Mostly cloudy
Mostly cloudy
 Wind from SSE
Wind: SSE 7 mph , 11 km/h
Temperature: 54°F , 12°C
Dew Point: 45°F , 7°C
Humidity: 72%
Barometer: 29.93 inHg , 1013.5 hPa
Clouds: Mostly cloudy
Visibility: 10 miles , 16 km
Cloud details: Mostly cloudy 6000 ft
2019/09/18 17:55 KAAT 181755Z AUTO 16006KT 10SM BKN060 12/07 A2993 RMK AO2 SLP116 T01170072 10117 20083 50001
 
KBAM - Battle Mtn (vor), Nevada, USA
Distance from station: NE 182mi, 294km
Updated: Wed, 18-Sep-2019 11:15am PDT

 Wind from W
Wind: W 8 mph , 13 km/h, Gust: 16 mph , 26 km/h
Temperature: 72°F , 22°C
Dew Point: 23°F , -5°C
Humidity: 16%
Barometer: 29.91 inHg , 1012.9 hPa
Visibility: 10 miles , 16 km
2019/09/18 18:15 KBAM 181815Z AUTO 26007G14KT 220V280 10SM 22/M05 A2991 RMK AO1
KHAF - Half Moon Bay, California, USA
Distance from station: SW 184mi, 296km
Updated: Wed, 18-Sep-2019 11:20am PDT
Mist, Mostly cloudy
Mist, Mostly cloudy
 Wind from SW
Wind: SW 7 mph , 11 km/h
Temperature: 63°F , 17°C
Dew Point: 61°F , 16°C
Humidity: 94%
Barometer: 29.99 inHg , 1015.6 hPa
Summary: Mist
Clouds: Mostly cloudy
Visibility: 6 miles , 10 km
Cloud details: Mostly cloudy 500 ft
Mostly cloudy 1000 ft
2019/09/18 18:20 KHAF 181820Z AUTO 23006KT 6SM BR BKN005 BKN010 17/16 A2999 RMK AO2
 
KWVI - Watsonville, California, USA
Distance from station: SW 184mi, 296km
Updated: Fri, 13-Sep-2019 2:53pm PDT
NOT Current
Clear
Clear
 Wind from W
Wind: W 10 mph , 17 km/h
Temperature: 99°F , 37°C
Dew Point: 39°F , 4°C
Humidity: 13%
Barometer: 29.93 inHg , 1013.5 hPa
Clouds: Clear
Visibility: 10 miles , 16 km
2019/09/13 21:53 KWVI 132153Z AUTO 27009KT 10SM CLR 37/04 A2993 RMK AO2 SLP133 T03670039
KUKI - Ukiah, California, USA
Distance from station: W 187mi, 300km
Updated: Wed, 18-Sep-2019 10:56am PDT
Overcast
Overcast
 Wind from calm
Wind: Calm
Temperature: 64°F , 18°C
Dew Point: 55°F , 13°C
Humidity: 73%
Barometer: 29.96 inHg , 1014.6 hPa
Clouds: Overcast
Visibility: 10 miles , 16 km
Cloud details: Partly cloudy 2900 ft
Partly cloudy 3400 ft
Overcast 5000 ft
2019/09/18 17:56 KUKI 181756Z AUTO 00000KT 10SM SCT029 SCT034 OVC050 18/13 A2996 RMK AO2 SLP139 T01830133 10183 20139 51005
 
KHJO - Hanford, California, USA
Distance from station: S 188mi, 303km
Updated: Wed, 18-Sep-2019 10:53am PDT
Clear
Clear
 Wind from varies
Wind: varies 6 mph , 9 km/h
Temperature: 75°F , 24°C
Dew Point: 48°F , 9°C
Humidity: 39%
Barometer: 29.98 inHg , 1015.2 hPa
Clouds: Clear
Visibility: 10 miles , 16 km
2019/09/18 17:53 KHJO 181753Z AUTO VRB05KT 10SM CLR 24/09 A2998 RMK AO2 SLP152 T02390089 10239 20128 50001
KNLC - Lemoore Nas/Reev, California, USA
Distance from station: S 188mi, 303km
Updated: Wed, 18-Sep-2019 10:56am PDT
Clear
Clear
 Wind from NNW
Wind: NNW 7 mph , 11 km/h
Temperature: 73°F , 23°C
Dew Point: 46°F , 8°C
Humidity: 38%
Barometer: 29.98 inHg , 1015.2 hPa
Clouds: Clear
Visibility: 10 miles , 16 km
2019/09/18 17:56 KNLC 181756Z 34006KT 10SM CLR 23/08 A2998 RMK AO2 SLP150 RH/38 T02330083 10233 20122 50001
 
KVIS - Visalia Muni, California, USA
Distance from station: S 189mi, 304km
Updated: Wed, 18-Sep-2019 10:56am PDT

 Wind from W
Wind: W 5 mph , 7 km/h
Temperature: 72°F , 22°C
Dew Point: 52°F , 11°C
Humidity: 50%
Barometer: 29.98 inHg , 1015.2 hPa
Visibility: 10 miles , 16 km
2019/09/18 17:56 KVIS 181756Z AUTO 28004KT 10SM 22/11 A2998 RMK AO2 SLP158 T02220111 10222 20106 50000 $
KSNS - Salinas, California, USA
Distance from station: SSW 193mi, 311km
Updated: Wed, 18-Sep-2019 10:53am PDT
Clear
Clear
 Wind from calm
Wind: Calm
Temperature: 70°F , 21°C
Dew Point: 54°F , 12°C
Humidity: 57%
Barometer: 29.99 inHg , 1015.6 hPa
Clouds: Clear
Visibility: 10 miles , 16 km
2019/09/18 17:53 KSNS 181753Z 00000KT 10SM CLR 21/12 A2999 RMK AO2 SLP163 T02060117 10206 20100 58000
 
K05U - Eureka, Nevada, USA
Distance from station: ENE 203mi, 326km
Updated: Wed, 18-Sep-2019 11:15am PDT
Clear
Clear
 Wind from S
Wind: S 10 mph , 17 km/h, Gust: 18 mph , 30 km/h
Temperature: 73°F , 23°C
Dew Point: 16°F , -9°C
Humidity: 11%
Barometer: 30.00 inHg , 1015.9 hPa
Clouds: Clear
Visibility: 10 miles , 16 km
2019/09/18 18:15 K05U 181815Z AUTO 17009G16KT 10SM CLR 23/M09 A3000 RMK A01
KP68 - Eureka, Nevada, USA
Distance from station: ENE 203mi, 326km
Updated: Wed, 18-Sep-2019 10:53am PDT

 Wind from SSW
Wind: SSW 7 mph , 11 km/h
Temperature: 70°F , 21°C
Dew Point: 16°F , -9°C
Humidity: 12%
Barometer: 29.98 inHg , 1015.2 hPa
2019/09/18 17:53 KP68 181753Z AUTO 20006KT 21/M09 A2998 RMK AO1 SLP093 T02061089 10206 20017 58012
 
KMRY - Monterey, California, USA
Distance from station: SW 206mi, 331km
Updated: Wed, 18-Sep-2019 10:54am PDT
Mostly cloudy
Mostly cloudy
 Wind from calm
Wind: Calm
Temperature: 70°F , 21°C
Dew Point: 55°F , 13°C
Humidity: 60%
Barometer: 30.00 inHg , 1015.9 hPa
Clouds: Mostly cloudy
Visibility: 10 miles , 16 km
Cloud details: Mostly cloudy 3600 ft
2019/09/18 17:54 KMRY 181754Z 00000KT 10SM BKN036 21/13 A3000 RMK AO2 SLP170 T02110133 10217 20139 50005
KO54 - Weaverville, California, USA
Distance from station: NW 207mi, 332km
Updated: Wed, 18-Sep-2019 11:15am PDT
Partly cloudy
Partly cloudy
 Wind from SSW
Wind: SSW 7 mph , 11 km/h
Temperature: 57°F , 14°C
Dew Point: 48°F , 9°C
Humidity: 72%
Barometer: 29.95 inHg , 1014.2 hPa
Clouds: Partly cloudy
Visibility: 10 miles , 16 km
Cloud details: Few Clouds 4000 ft
Partly cloudy 6000 ft
2019/09/18 18:15 KO54 181815Z AUTO 20006KT 10SM FEW040 SCT060 14/09 A2995 RMK AO1
 
KO86 - Trinity Center, California, USA
Distance from station: NW 207mi, 333km
Updated: Wed, 18-Sep-2019 11:10am PDT

 Wind from W
Wind: W 3 mph , 6 km/h
Temperature: 57°F , 14°C
Dew Point: 48°F , 9°C
Humidity: 72%
Barometer: 29.94 inHg , 1013.9 hPa
Visibility: 10 miles , 16 km
2019/09/18 18:10 KO86 181810Z AUTO 26003KT 10SM 14/09 A2994 RMK AO1
KMHS - Mount Shasta, California, USA
Distance from station: NW 209mi, 336km
Updated: Wed, 18-Sep-2019 10:56am PDT
Overcast
Overcast
 Wind from varies
Wind: varies 3 mph , 6 km/h
Temperature: 55°F , 13°C
Dew Point: 46°F , 8°C
Humidity: 72%
Barometer: 29.93 inHg , 1013.5 hPa
Clouds: Overcast
Visibility: 10 miles , 16 km
Cloud details: Few Clouds 1300 ft
Mostly cloudy 6500 ft
Overcast 9000 ft
2019/09/18 17:56 KMHS 181756Z AUTO VRB03KT 10SM FEW013 BKN065 OVC090 13/08 A2993 RMK AO2 SLP139 60003 T01330083 10139 20094 51004
 
KPTV - Porterville, California, USA
Distance from station: S 212mi, 341km
Updated: Wed, 18-Sep-2019 10:56am PDT

 
2019/09/18 17:56 KPTV 181756Z AUTO RMK AO2 SLPNO 6//// PWINO FZRANO $
KLKV - Lakeview, Oregon, USA
Distance from station: N 219mi, 353km
Updated: Wed, 18-Sep-2019 10:53am PDT
Light rain, Overcast
Light rain, Overcast
 Wind from WSW
Wind: WSW 15 mph , 24 km/h
Temperature: 48°F , 9°C
Wind Chill: 42°F , 6°C
Dew Point: 43°F , 6°C
Humidity: 82%
Barometer: 29.92 inHg , 1013.2 hPa
Summary: Light rain
Clouds: Overcast
Visibility: 10 miles , 16 km
Cloud details: Partly cloudy 2200 ft
Mostly cloudy 3900 ft
Overcast 4900 ft
2019/09/18 17:53 KLKV 181753Z AUTO 25013KT 10SM -RA SCT022 BKN039 OVC049 09/06 A2992 RMK AO2 WSHFT 1728 RAB38 SLP126 P0001 60009 T00890056 10122 20072 50001
 
KSIY - Montague/Siskiyo, California, USA
Distance from station: NW 237mi, 382km
Updated: Wed, 18-Sep-2019 10:53am PDT
Overcast
Overcast
 Wind from calm
Wind: Calm
Temperature: 57°F , 14°C
Dew Point: 48°F , 9°C
Humidity: 72%
Barometer: 29.92 inHg , 1013.2 hPa
Clouds: Overcast
Visibility: 10 miles , 16 km
Cloud details: Mostly cloudy 6000 ft
Mostly cloudy 10000 ft
Overcast 12000 ft
2019/09/18 17:53 KSIY 181753Z AUTO 00000KT 10SM BKN060 BKN100 OVC120 14/09 A2992 RMK AO2 SLP132 T01440089 10150 20100 51006
KPRB - Paso Robles, California, USA
Distance from station: SSW 238mi, 383km
Updated: Wed, 18-Sep-2019 10:53am PDT
Clear
Clear
 Wind from varies
Wind: varies 3 mph , 6 km/h
Temperature: 70°F , 21°C
Dew Point: 48°F , 9°C
Humidity: 46%
Barometer: 29.99 inHg , 1015.6 hPa
Clouds: Clear
Visibility: 10 miles , 16 km
2019/09/18 17:53 KPRB 181753Z AUTO VRB03KT 10SM CLR 21/09 A2999 RMK AO2 SLP148 T02060089 10206 20078 58004 $
 
KLMT - Klamath Falls, Oregon, USA
Distance from station: NNW 239mi, 385km
Updated: Wed, 18-Sep-2019 10:53am PDT
Mostly cloudy
Mostly cloudy
 Wind from WNW
Wind: WNW 12 mph , 19 km/h
Temperature: 52°F , 11°C
Dew Point: 45°F , 7°C
Humidity: 77%
Barometer: 29.91 inHg , 1012.9 hPa
Clouds: Mostly cloudy
Visibility: 10 miles , 16 km
Cloud details: Partly cloudy 2500 ft
Mostly cloudy 3300 ft
Mostly cloudy 5500 ft
2019/09/18 17:53 KLMT 181753Z 29010KT 10SM SCT025 BKN033 BKN055 11/07 A2991 RMK AO2 SLP109 60006 T01110067 10111 20078 50005
KEKO - Elko, Nevada, USA
Distance from station: ENE 242mi, 390km
Updated: Wed, 18-Sep-2019 10:56am PDT
Clear
Clear
 Wind from W
Wind: W 5 mph , 7 km/h
Temperature: 64°F , 18°C
Dew Point: 25°F , -4°C
Humidity: 22%
Barometer: 29.93 inHg , 1013.5 hPa
Clouds: Clear
Visibility: 10 miles , 16 km
2019/09/18 17:56 KEKO 181756Z AUTO 26004KT 10SM CLR 18/M04 A2993 RMK AO2 SLP106 T01831044 10183 20000 58018
 
KBFL - Bakersfield, California, USA
Distance from station: S 252mi, 405km
Updated: Wed, 18-Sep-2019 10:54am PDT
Clear
Clear
 Wind from S
Wind: S 7 mph , 11 km/h
Temperature: 72°F , 22°C
Dew Point: 46°F , 8°C
Humidity: 41%
Barometer: 29.97 inHg , 1014.9 hPa
Clouds: Clear
Visibility: 10 miles , 16 km
2019/09/18 17:54 KBFL 181754Z 18006KT 10SM CLR 22/08 A2997 RMK AO2 SLP144 T02220083 10222 20150 58002
KFOT - Fortuna, California, USA
Distance from station: WNW 256mi, 413km
Updated: Wed, 18-Sep-2019 11:15am PDT
Mostly cloudy
Mostly cloudy
 Wind from WSW
Wind: WSW 5 mph , 7 km/h
Temperature: 64°F , 18°C
Dew Point: 57°F , 14°C
Humidity: 78%
Barometer: 29.95 inHg , 1014.2 hPa
Clouds: Mostly cloudy
Visibility: 10 miles , 16 km
Cloud details: Few Clouds 2200 ft
Partly cloudy 3600 ft
Mostly cloudy 6000 ft
2019/09/18 18:15 KFOT 181815Z AUTO 24004KT 10SM FEW022 SCT036 BKN060 18/14 A2995 RMK AO1
 
KNID - China Lake (naf), California, USA
Distance from station: SSE 259mi, 417km
Updated: Wed, 18-Sep-2019 10:56am PDT
Clear
Clear
 Wind from calm
Wind: Calm
Temperature: 75°F , 24°C
Dew Point: 39°F , 4°C
Humidity: 27%
Barometer: 29.91 inHg , 1012.9 hPa
Clouds: Clear
Visibility: 10 miles , 16 km
2019/09/18 17:56 KNID 181756Z 00000KT 10SM CLR 24/04 A2991 RMK AO2 SLP112 T02440044 10244 20133 58004 $
KDRA - Desert R/Mercury, Nevada, USA
Distance from station: SE 262mi, 421km
Updated: Wed, 18-Sep-2019 10:53am PDT
Clear
Clear
 Wind from SSW
Wind: SSW 5 mph , 7 km/h
Temperature: 79°F , 26°C
Dew Point: 27°F , -3°C
Humidity: 15%
Barometer: 29.94 inHg , 1013.9 hPa
Clouds: Clear
Visibility: 10 miles , 16 km
2019/09/18 17:53 KDRA 181753Z AUTO 21004KT 10SM CLR 26/M03 A2994 RMK AO2 SLP100 T02561033 10256 20111 58002
 
KELY - Ely, Nevada, USA
Distance from station: E 262mi, 421km
Updated: Wed, 18-Sep-2019 10:53am PDT
Clear
Clear
 Wind from S
Wind: S 15 mph , 24 km/h
Temperature: 70°F , 21°C
Dew Point: 18°F , -8°C
Humidity: 13%
Barometer: 30.03 inHg , 1016.9 hPa
Clouds: Clear
Visibility: 10 miles , 16 km
2019/09/18 17:53 KELY 181753Z AUTO 18013KT 10SM CLR 21/M08 A3003 RMK AO2 PK WND 16026/1723 SLP096 T02111083 10211 20000 58012 $
KREO - Rome, Oregon, USA
Distance from station: NNE 263mi, 424km
Updated: Wed, 18-Sep-2019 10:52am PDT

 Wind from ESE
Wind: ESE 6 mph , 9 km/h
Temperature: 54°F , 12°C
Dew Point: 48°F , 9°C
Humidity: 82%
Barometer: 29.90 inHg , 1012.5 hPa
2019/09/18 17:52 KREO 181752Z AUTO 11005KT 12/09 A2990 RMK AO1 SLP112 P0002 60007 T01170089 10117 20100 58001
 
KACV - Arcata/Eureka, California, USA
Distance from station: WNW 268mi, 431km
Updated: Wed, 18-Sep-2019 10:53am PDT
Overcast
Overcast
 Wind from SSW
Wind: SSW 12 mph , 19 km/h
Temperature: 66°F , 19°C
Dew Point: 57°F , 14°C
Humidity: 73%
Barometer: 29.94 inHg , 1013.9 hPa
Clouds: Overcast
Visibility: 10 miles , 16 km
Cloud details: Few Clouds 4900 ft
Mostly cloudy 6500 ft
Overcast 8000 ft
2019/09/18 17:53 KACV 181753Z AUTO 21010KT 10SM FEW049 BKN065 OVC080 19/14 A2994 RMK AO2 RAB18E29 SLP140 P0000 60000 T01890139 10189 20139 53009
KSBP - San Luis Obispo, California, USA
Distance from station: S 268mi, 431km
Updated: Wed, 18-Sep-2019 10:56am PDT
Clear
Clear
 Wind from WNW
Wind: WNW 5 mph , 7 km/h
Temperature: 77°F , 25°C
Dew Point: 46°F , 8°C
Humidity: 34%
Barometer: 29.95 inHg , 1014.2 hPa
Clouds: Clear
Visibility: 10 miles , 16 km
2019/09/18 17:56 KSBP 181756Z 29004KT 10SM CLR 25/08 A2995 RMK AO2 SLP139 T02500083 10250 20106 58001
 
KINS - Indian Springs, Nevada, USA
Distance from station: SE 279mi, 449km
Updated: Wed, 18-Sep-2019 10:58am PDT
Few Clouds
Few Clouds
 Wind from E
Wind: E 8 mph , 13 km/h
Temperature: 77°F , 25°C
Dew Point: 25°F , -4°C
Humidity: 14%
Barometer: 29.93 inHg , 1013.5 hPa
Clouds: Few Clouds
Visibility: 10 miles , 16 km
Cloud details: Few Clouds 19000 ft
2019/09/18 17:58 KINS 181758Z AUTO 10007KT 10SM FEW190 25/M04 A2993 RMK AO2 SLP095 T02501044 10250 20113 58001 $
KTSP - Tehachapi, California, USA
Distance from station: SSE 279mi, 449km
Updated: Wed, 18-Sep-2019 11:15am PDT
Clear
Clear
 Wind from NW
Wind: NW 14 mph , 22 km/h, Gust: 21 mph , 33 km/h
Temperature: 66°F , 19°C
Dew Point: 39°F , 4°C
Humidity: 37%
Barometer: 30.06 inHg , 1017.9 hPa
Clouds: Clear
Visibility: 10 miles , 16 km
2019/09/18 18:15 KTSP 181815Z AUTO 31012G18KT 10SM CLR 19/04 A3006 RMK AO2
 
KMFR - Medford, Oregon, USA
Distance from station: NW 284mi, 457km
Updated: Wed, 18-Sep-2019 10:53am PDT
Light rain, Overcast
Light rain, Overcast
 Wind from WNW
Wind: WNW 5 mph , 7 km/h
Temperature: 59°F , 15°C
Dew Point: 54°F , 12°C
Humidity: 82%
Barometer: 29.88 inHg , 1011.9 hPa
Summary: Light rain
Clouds: Overcast
Visibility: 2 1/2 miles , 4 km
Cloud details: Mostly cloudy 1700 ft
Mostly cloudy 7000 ft
Overcast 9000 ft
2019/09/18 17:53 KMFR 181753Z 30004KT 2 1/2SM -RA BKN017 BKN070 OVC090 15/12 A2988 RMK AO2 RAB43 SLP114 P0001 60006 T01500117 10167 20128 51005
KMHV - Mojave, California, USA
Distance from station: SSE 288mi, 463km
Updated: Wed, 18-Sep-2019 11:00am PDT
Clear
Clear
 Wind from W
Wind: W 15 mph , 24 km/h
Temperature: 79°F , 26°C
Dew Point: 36°F , 2°C
Humidity: 21%
Barometer: 29.96 inHg , 1014.6 hPa
Clouds: Clear
Visibility: 10 miles , 16 km
2019/09/18 18:00 KMHV 181800Z AUTO 28013KT 10SM CLR 26/02 A2996 RMK A01
 
KSMX - Santa Maria, California, USA
Distance from station: S 289mi, 465km
Updated: Wed, 18-Sep-2019 10:51am PDT
Haze, Clear
Haze, Clear
 Wind from NW
Wind: NW 6 mph , 9 km/h
Temperature: 73°F , 23°C
Dew Point: 46°F , 8°C
Humidity: 38%
Barometer: 29.96 inHg , 1014.6 hPa
Summary: Haze
Clouds: Clear
Visibility: 6 miles , 10 km
2019/09/18 17:51 KSMX 181751Z 31005KT 6SM HZ CLR 23/08 A2996 RMK AO2 SLP147 T02330083 10239 20100 50000
K9L2 - Edwards N-Aux, California, USA
Distance from station: SSE 299mi, 482km
Updated: Wed, 18-Sep-2019 10:58am PDT
Clear
Clear
 Wind from SW
Wind: SW 14 mph , 22 km/h, Gust: 21 mph , 33 km/h
Temperature: 79°F , 26°C
Dew Point: 34°F , 1°C
Humidity: 20%
Barometer: 29.94 inHg , 1013.9 hPa
Clouds: Clear
Visibility: 7 miles , 11 km
2019/09/18 17:58 K9L2 181758Z AUTO 22012G18KT 7SM CLR 26/01 A2994 RMK AO2 SLP119 T02560010 10258 20085 58000 $
Honor Flight NV - Honoring all of our Veterans CoCoRaHS (Community Collaborative Rain, Hail and Snow Network) Station Number: NV-DG-2 Live Lightning Map - USA Reno Skywarn Spotter ID: DO21 AlertID Southwestern Weather Network Carson Valley Community Food Closet - providing for the needs of our community